Latest Weather Observations for Woomera

IDS60801

Issued at 1:12 am CDT Tuesday 26 January 2021 (issued every 10 minutes, with the page automatically refreshed every 10 minutes)

About weather observations | Map of weather stations | Latest weather observations for SA | Other Formats
Station Details ID: 016001 Name: WOOMERA AERODROME Lat: -31.16 Lon: 136.81 Height: 166.6 m
Data from the previous 72 hours. | See also: Recent months at Woomera
Date/Time
CDT
Temp
°C
App
Temp
°C
Dew
Point
°C
Rel
Hum
%
Delta-T
°C
Wind Press
QNH
hPa
Press
MSL
hPa
Rain since
9am
mm
Dir  Spd
km/h
Gust
km/h
Spd
kts
Gust
kts
26/01:00am 23.3 23.1 21.2 88 1.4 SSE 24 32 13 17 1002.4 1001.4 43.6
26/12:30am 23.5 23.6 21.8 90 1.1 SSE 24 35 13 19 1002.3 1001.3 43.6
26/12:28am 23.5 23.2 21.8 90 1.1 SSE 26 35 14 19 1002.3 1001.3 43.6
26/12:15am 23.8 22.9 22.2 91 1.1 SE 30 39 16 21 1002.5 1001.5 43.6
26/12:06am 24.0 22.8 22.3 90 1.1 SSE 32 41 17 22 1002.4 1001.4 43.6
26/12:00am 24.2 23.5 22.5 90 1.2 SSE 30 39 16 21 1002.3 1001.3 43.6
 
Date/Time
CDT
Temp
°C
App
Temp
°C
Dew
Point
°C
Rel
Hum
%
Delta-T
°C
Wind Press
QNH
hPa
Press
MSL
hPa
Rain since
9am
mm
Dir  Spd
km/h
Gust
km/h
Spd
kts
Gust
kts
25/11:50pm 24.4 24.5 23.2 93 0.8 SSE 28 37 15 20 1002.3 1001.3 43.6
25/11:30pm 24.6 24.2 23.0 91 1.1 S 30 39 16 21 1001.7 1000.7 43.6
25/11:00pm 24.9 24.9 23.0 89 1.3 SSW 28 37 15 20 1001.3 1000.3 43.6
25/10:30pm 24.4 27.0 23.9 97 0.3 SW 17 24 9 13 1000.6 999.6 43.6
25/10:00pm 24.4 27.9 24.2 99 0.1 SSW 13 17 7 9 1000.5 999.5 43.6
25/09:30pm 24.6 27.5 23.9 96 0.5 SE 15 19 8 10 1000.6 999.6 43.6
25/09:00pm 24.5 28.0 24.2 98 0.2 SE 13 19 7 10 1000.9 999.9 43.6
25/08:30pm 24.3 26.0 24.1 99 0.1 SE 22 28 12 15 1000.3 999.3 43.6
25/08:00pm 23.9 26.0 23.7 99 0.1 SE 19 22 10 12 1000.1 999.1 43.6
25/07:56pm 23.8 25.8 23.6 99 0.1 SE 19 22 10 12 1000.1 999.1 43.6
25/07:35pm 24.2 26.8 24.0 99 0.1 ESE 17 20 9 11 999.5 998.4 42.4
25/07:32pm 24.2 27.2 24.0 99 0.1 ESE 15 19 8 10 999.5 998.4 42.4
25/07:31pm 24.2 27.2 24.0 99 0.1 ESE 15 19 8 10 999.6 998.5 42.2
25/07:30pm 24.3 27.4 24.1 99 0.1 ESE 15 19 8 10 999.6 998.5 42.2
25/07:22pm 24.1 27.0 23.9 99 0.1 ESE 15 20 8 11 999.7 998.6 41.2
25/07:00pm 24.5 26.7 24.3 99 0.1 SE 20 28 11 15 999.2 998.1 39.0
25/06:42pm 24.4 26.6 24.2 99 0.1 SW 20 33 11 18 998.6 997.6 37.2
25/06:32pm 24.3 23.2 24.1 99 0.1 SSE 37 50 20 27 998.2 997.2 34.4
25/06:30pm 24.3 22.8 24.1 99 0.1 SE 39 50 21 27 997.6 996.6 33.2
25/06:24pm 24.5 26.3 24.2 98 0.2 SE 22 46 12 25 997.3 996.3 26.2
25/06:00pm 25.6 28.3 24.7 95 0.6 SE 19 28 10 15 997.9 996.9 7.4
25/05:38pm 25.8 25.9 24.0 90 1.2 SSE 30 39 16 21 997.7 996.7 1.4
25/05:30pm 28.2 29.0 21.7 68 4.4 SSW 20 39 11 21 997.2 996.2 1.0
25/05:23pm 29.6 27.5 20.5 58 6.1 N 32 48 17 26 997.2 996.2 1.0
25/05:01pm 31.6 29.4 21.5 55 6.8 N 35 56 19 30 996.2 995.2 1.0
25/05:00pm 31.6 29.8 21.5 55 6.8 N 33 50 18 27 996.2 995.2 1.0
25/04:55pm 32.3 31.7 20.5 49 7.9 NNW 24 50 13 27 996.2 995.2 1.0
25/04:30pm 37.3 34.9 18.3 32 12.6 NW 28 39 15 21 996.1 995.1 0.8
25/04:01pm 34.0 33.2 22.4 50 8.0 NW 30 39 16 21 996.3 995.3 0.8
25/04:00pm 33.9 32.9 22.0 49 8.2 NW 30 39 16 21 996.3 995.3 0.8
25/03:49pm 31.3 30.4 23.1 61 5.7 W 33 70 18 38 997.0 996.0 0.8
25/03:43pm 29.2 24.1 20.6 59 5.7 WNW 48 78 26 42 997.1 996.1 0.8
25/03:40pm 32.0 28.0 21.2 52 7.3 NW 44 78 24 42 997.0 996.0 0.2
25/03:38pm 34.3 32.2 23.0 51 7.9 NW 39 78 21 42 996.7 995.7 0.2
25/03:37pm 35.8 32.3 18.8 36 11.2 NW 35 78 19 42 996.5 995.5 0.2
25/03:30pm 37.6 34.9 17.6 31 13.2 NNW 28 39 15 21 996.7 995.7 0.2
25/03:12pm 35.8 33.3 18.8 36 11.2 N 30 48 16 26 997.1 996.1 0.2
25/03:00pm 35.1 30.0 19.1 39 10.7 NNW 44 56 24 30 997.2 996.2 0.2
25/02:53pm 35.8 31.2 18.8 36 11.2 NW 41 56 22 30 997.1 996.1 0.2
25/02:48pm 37.4 33.9 17.4 30 13.0 NW 32 56 17 30 997.0 996.0 0.2
25/02:30pm 34.9 31.8 18.5 38 10.8 NNW 32 50 17 27 997.9 996.9 0.2
25/02:20pm 35.6 31.8 18.2 35 11.4 NNW 35 61 19 33 998.0 997.0 0.2
25/02:00pm 38.8 35.0 18.1 29 13.7 NNW 35 48 19 26 998.1 997.1 0.2
25/01:30pm 37.1 32.3 17.6 31 12.8 NNW 39 52 21 28 998.5 997.5 0.2
25/01:00pm 36.8 32.0 18.4 34 12.1 N 41 61 22 33 999.1 998.0 0.2
25/12:30pm 35.2 29.8 17.9 36 11.3 N 43 63 23 34 999.4 998.3 0.2
25/12:28pm 34.9 29.8 17.6 35 11.2 N 41 63 22 34 999.5 998.4 0.2
25/12:00pm 34.7 28.4 17.0 35 11.4 N 46 59 25 32 999.9 998.8 0.2
25/11:30am 34.8 28.1 16.1 32 11.9 NNW 46 61 25 33 1000.0 999.0 0.2
25/11:21am 35.2 30.4 16.5 33 12.0 N 37 61 20 33 1000.3 999.3 0.2
25/11:00am 33.6 27.6 16.9 37 10.7 N 44 57 24 31 1000.7 999.7 0.2
25/10:30am 33.5 27.6 16.8 36 10.7 N 43 56 23 30 1000.9 999.9 0.0
25/10:16am 33.6 29.7 16.9 37 10.7 N 33 52 18 28 1000.9 999.9 0.0
25/10:00am 32.5 28.5 17.5 40 9.7 N 35 43 19 23 1001.2 1000.2 0.0
25/09:30am 30.8 28.8 18.2 47 8.2 N 26 33 14 18 1001.5 1000.5 0.0
25/09:00am 29.6 29.2 19.3 54 6.8 N 20 30 11 16 1001.5 1000.5 0.0
25/08:30am 26.7 26.7 20.1 67 4.3 NNE 20 26 11 14 1001.6 1000.6 0.0
25/08:00am 25.5 25.2 20.3 73 3.4 N 22 28 12 15 1001.7 1000.7 0.0
25/07:30am 27.4 24.9 18.9 59 5.5 NNW 30 43 16 23 1001.6 1000.6 0.0
25/07:28am 28.2 25.8 18.3 55 6.4 NNW 28 43 15 23 1001.6 1000.6 0.0
25/07:00am 29.4 27.5 15.1 41 8.8 NW 19 24 10 13 1001.4 1000.4 0.0
25/06:30am 28.8 28.0 16.0 45 8.0 NW 15 19 8 10 1001.2 1000.2 0.0
25/06:00am 28.9 26.5 16.5 47 7.8 WNW 24 32 13 17 1001.2 1000.2 0.0
25/05:30am 29.9 27.2 15.6 42 8.9 WNW 24 35 13 19 1001.3 1000.3 0.0
25/05:00am 30.6 29.3 13.8 35 10.2 N 13 17 7 9 1001.1 1000.1 0.0
25/04:30am 30.8 28.8 14.0 36 10.3 N 17 20 9 11 1001.0 1000.0 0.0
25/04:00am 30.8 28.5 13.1 34 10.6 N 17 20 9 11 1000.9 999.9 0.0
25/03:30am 30.9 28.5 11.3 30 11.5 N 15 19 8 10 1001.1 1000.1 0.0
25/03:00am 31.2 28.3 11.1 29 11.8 N 17 24 9 13 1001.5 1000.5 0.0
25/02:30am 31.1 27.3 7.5 23 13.0 NNE 17 20 9 11 1001.5 1000.5 0.0
25/02:00am 30.9 27.4 7.4 23 12.9 NNE 15 17 8 9 1001.7 1000.7 0.0
25/01:30am 30.9 27.4 7.4 23 12.9 NNE 15 17 8 9 1001.9 1000.9 0.0
25/01:00am 32.1 28.7 7.7 22 13.5 ENE 15 19 8 10 1002.1 1001.1 0.0
25/12:30am 32.2 28.7 7.1 21 13.8 E 15 17 8 9 1002.0 1001.0 0.0
25/12:00am 33.7 29.9 7.6 20 14.6 ENE 17 26 9 14 1002.3 1001.3 0.0
 
Date/Time
CDT
Temp
°C
App
Temp
°C
Dew
Point
°C
Rel
Hum
%
Delta-T
°C
Wind Press
QNH
hPa
Press
MSL
hPa
Rain since
9am
mm
Dir  Spd
km/h
Gust
km/h
Spd
kts
Gust
kts
24/11:30pm 32.8 29.8 7.6 21 14.0 ENE 13 19 7 10 1002.3 1001.3 0.0
24/11:00pm 33.9 28.6 7.0 19 14.9 ESE 24 32 13 17 1001.9 1000.9 0.0
24/10:30pm 34.8 28.2 6.2 17 15.8 ESE 30 39 16 21 1001.9 1000.9 0.0
24/10:00pm 35.5 30.6 4.9 15 16.5 E 20 26 11 14 1001.8 1000.8 0.0
24/09:30pm 35.7 30.6 3.0 13 17.2 ENE 19 22 10 12 1001.7 1000.7 0.0
24/09:00pm 36.0 30.8 3.3 13 17.3 E 20 26 11 14 1001.5 1000.5 0.0
24/08:30pm 36.7 29.6 1.5 11 18.2 ESE 28 33 15 18 1001.1 1000.1 0.0
24/08:00pm 37.5 29.4 0.7 10 18.8 E 33 46 18 25 1000.5 999.5 0.0
24/07:30pm 37.6 30.8 0.8 10 18.9 ESE 26 39 14 21 1001.0 1000.0 0.0
24/07:00pm 37.7 31.7 0.9 10 18.9 ESE 22 30 12 16 1001.4 1000.4 0.0
24/06:30pm 37.9 33.2 1.0 10 19.1 ENE 15 26 8 14 1001.6 1000.6 0.0
24/06:00pm 38.1 31.9 -0.3 9 19.5 NNW 22 44 12 24 1001.7 1000.7 0.0
24/05:52pm 38.2 30.5 -0.2 9 19.4 ENE 30 52 16 28 1002.4 1001.4 0.0
24/05:49pm 38.5 31.2 0.0 9 19.6 ENE 28 46 15 25 1001.8 1000.8 0.0
24/05:30pm 38.6 33.8 0.1 9 19.7 NNE 15 26 8 14 1002.2 1001.2 0.0
24/05:00pm 39.0 32.5 0.4 9 19.8 N 24 43 13 23 1002.2 1001.2 0.0
24/04:30pm 39.3 33.8 0.6 9 20.0 NNW 19 37 10 20 1002.4 1001.4 0.0
24/04:00pm 39.8 34.7 1.0 9 20.2 NNW 17 28 9 15 1002.5 1001.5 0.0
24/03:30pm 40.2 36.1 -0.3 8 20.8 NNW 11 20 6 11 1002.7 1001.7 0.0
24/03:00pm 40.4 35.5 -0.2 8 20.9 NNE 15 24 8 13 1002.9 1001.9 0.0
24/02:30pm 40.6 35.6 1.6 9 20.6 N 17 37 9 20 1003.3 1002.3 0.0
24/02:00pm 40.9 35.6 1.8 9 20.7 NNE 19 24 10 13 1003.7 1002.7 0.0
24/01:30pm 40.5 34.4 3.0 10 20.2 NNE 24 35 13 19 1004.1 1003.1 0.0
24/01:00pm 40.6 33.8 3.1 10 20.2 NNE 28 39 15 21 1004.6 1003.6 0.0
24/12:30pm 40.0 33.1 2.6 10 20.0 N 28 39 15 21 1005.1 1004.0 0.0
24/12:00pm 39.9 32.6 2.5 10 20.0 NNE 30 35 16 19 1005.2 1004.1 0.0
24/11:30am 40.8 33.1 3.2 10 20.4 NNE 33 41 18 22 1005.2 1004.1 0.0
24/11:00am 38.4 31.0 4.0 12 18.6 NNE 32 43 17 23 1005.5 1004.5 0.0
24/10:30am 38.2 30.8 3.8 12 18.6 NNE 32 37 17 20 1005.6 1004.6 0.0
24/10:00am 36.6 29.4 4.8 14 17.2 NNE 32 43 17 23 1005.8 1004.8 0.0
24/09:30am 34.6 28.2 3.2 14 16.5 NE 26 30 14 16 1006.0 1005.0 0.0
24/09:00am 32.3 26.9 1.4 14 15.5 NE 19 26 10 14 1006.1 1005.1 0.0
24/08:30am 30.3 25.5 -0.1 14 14.7 ENE 15 17 8 9 1005.8 1004.8 0.0
24/08:00am 29.1 24.1 -1.1 14 14.2 ENE 15 19 8 10 1005.6 1004.6 0.0
24/07:30am 28.2 23.1 -1.8 14 13.9 ENE 15 17 8 9 1005.4 1004.4 0.0
24/07:00am 27.4 22.4 -1.5 15 13.3 ENE 15 17 8 9 1005.1 1004.0 0.0
24/06:30am 27.9 22.0 -2.0 14 13.7 NE 19 20 10 11 1004.7 1003.7 0.0
24/06:00am 28.4 22.4 -1.6 14 13.9 NE 20 24 11 13 1004.6 1003.6 0.0
24/05:30am 28.8 22.9 -2.3 13 14.3 NNE 19 20 10 11 1004.3 1003.3 0.0
24/05:00am 28.5 22.9 -2.6 13 14.1 NE 17 19 9 10 1004.2 1003.2 0.0
24/04:30am 28.9 23.4 -2.3 13 14.4 NE 17 19 9 10 1004.1 1003.1 0.0
24/04:00am 28.9 23.3 -3.3 12 14.5 NE 17 19 9 10 1004.2 1003.2 0.0
24/03:30am 29.4 23.8 -2.9 12 14.8 ENE 17 17 9 9 1004.5 1003.5 0.0
24/03:00am 29.2 24.5 -2.0 13 14.5 ENE 13 15 7 8 1004.8 1003.8 0.0
24/02:30am 30.3 24.2 -2.2 12 15.1 E 20 24 11 13 1005.0 1003.9 0.0
24/02:00am 29.9 24.7 -2.6 12 14.9 E 15 17 8 9 1005.0 1003.9 0.0
24/01:30am 29.9 25.1 -2.6 12 15.0 E 13 17 7 9 1005.3 1004.3 0.0
24/01:00am 30.8 25.9 -3.0 11 15.5 NNE 13 15 7 8 1005.4 1004.4 0.0
24/12:30am 30.8 25.8 -4.3 10 15.8 NNE 13 15 7 8 1005.7 1004.7 0.0
24/12:00am 31.9 26.6 -3.5 10 16.3 NNE 15 17 8 9 1005.9 1004.9 0.0
 
Date/Time
CDT
Temp
°C
App
Temp
°C
Dew
Point
°C
Rel
Hum
%
Delta-T
°C
Wind Press
QNH
hPa
Press
MSL
hPa
Rain since
9am
mm
Dir  Spd
km/h
Gust
km/h
Spd
kts
Gust
kts
23/11:30pm 32.8 27.0 -4.2 9 17.0 NNE 17 19 9 10 1005.8 1004.8 0.0
23/11:00pm 33.2 27.5 -3.9 9 17.1 NE 17 17 9 9 1005.8 1004.8 0.0
23/10:30pm 34.1 28.5 -3.2 9 17.6 NE 17 17 9 9 1005.7 1004.7 0.0
23/10:00pm 35.0 29.3 -4.1 8 18.2 NE 17 17 9 9 1005.5 1004.5 0.0
23/09:30pm 35.6 30.3 -3.7 8 18.6 E 15 17 8 9 1005.2 1004.1 0.0
23/09:00pm 37.2 31.6 -2.5 8 19.3 E 17 20 9 11 1004.8 1003.8 0.0
23/08:30pm 38.4 33.1 -3.4 7 20.2 ESE 15 19 8 10 1004.5 1003.5 0.0
23/08:00pm 39.5 34.3 -2.6 7 20.7 E 15 20 8 11 1004.5 1003.5 0.0
23/07:30pm 40.6 34.6 -1.9 7 21.3 ENE 20 26 11 14 1004.3 1003.3 0.0
23/07:00pm 41.0 35.3 -3.6 6 21.8 ENE 17 32 9 17 1004.0 1003.0 0.0
23/06:30pm 41.6 35.6 -3.2 6 22.2 SSE 19 32 10 17 1004.0 1003.0 0.0
23/06:00pm 41.7 35.5 -3.1 6 22.2 S 20 30 11 16 1004.3 1003.3 0.0
23/05:30pm 42.0 35.8 -2.9 6 22.4 S 20 35 11 19 1004.5 1003.5 0.0
23/05:00pm 41.9 37.8 -3.0 6 22.3 S 9 19 5 10 1004.5 1003.5 0.0
23/04:30pm 41.7 38.0 -3.1 6 22.2 S 7 15 4 8 1004.8 1003.8 0.0
23/04:00pm 41.7 36.1 -3.1 6 22.2 SSE 17 24 9 13 1005.3 1004.3 0.0
23/03:30pm 41.1 37.3 -3.6 6 21.9 WNW 7 13 4 7 1005.5 1004.5 0.0
23/03:00pm 42.2 38.5 -2.8 6 22.5 W 7 17 4 9 1005.8 1004.8 0.0
23/02:30pm 40.0 36.0 -2.3 7 21.0 SW 9 15 5 8 1006.1 1005.1 0.0
23/02:00pm 40.0 35.2 -2.3 7 20.9 NNW 13 20 7 11 1006.5 1005.5 0.0
23/01:30pm 40.4 36.8 -2.0 7 21.2 SE 7 11 4 6 1006.9 1005.9 0.0
23/01:00pm 38.9 34.8 -3.1 7 20.4 ENE 9 15 5 8 1007.2 1006.2 0.0
23/12:30pm 38.3 33.0 -3.5 7 20.1 NNE 15 22 8 12 1007.7 1006.7 0.0
23/12:00pm 38.4 32.4 -3.4 7 20.2 NE 19 24 10 13 1008.0 1007.0 0.0
23/11:30am 37.2 30.9 -4.3 7 19.6 NE 20 30 11 16 1008.2 1007.2 0.0
23/11:00am 36.2 28.8 -3.3 8 18.8 NE 26 35 14 19 1008.4 1007.4 0.0
23/10:30am 35.6 27.4 -3.7 8 18.5 ENE 30 39 16 21 1008.5 1007.5 0.0
23/10:00am 34.5 25.9 -4.5 8 18.0 ENE 32 39 17 21 1008.6 1007.6 0.0
23/09:30am 33.2 24.6 -3.9 9 17.1 E 32 37 17 20 1008.7 1007.7 0.0
23/09:00am 32.0 24.1 -4.8 9 16.6 E 28 33 15 18 1008.7 1007.7 0.0
23/08:30am 29.4 23.4 -1.9 13 14.5 E 20 26 11 14 1008.7 1007.7 0.0
23/08:00am 27.2 21.1 0.1 17 12.8 E 22 26 12 14 1008.4 1007.4 0.0
23/07:30am 25.8 19.7 0.5 19 11.9 E 22 28 12 15 1008.3 1007.3 0.0
23/07:00am 25.3 18.5 0.8 20 11.6 ESE 26 32 14 17 1008.3 1007.3 0.0
23/06:30am 24.5 17.8 1.4 22 11.0 ESE 26 32 14 17 1008.2 1007.2 0.0
23/06:00am 24.9 18.7 2.4 23 10.9 ESE 24 30 13 16 1008.1 1007.1 0.0
23/05:30am 24.8 19.5 2.9 24 10.7 ESE 20 26 11 14 1008.1 1007.1 0.0
23/05:00am 25.2 19.5 2.6 23 11.0 ESE 22 26 12 14 1008.0 1007.0 0.0
23/04:30am 26.4 20.0 3.0 22 11.6 SE 26 35 14 19 1007.8 1006.8 0.0
23/04:00am 25.4 20.9 2.2 22 11.2 SE 15 19 8 10 1008.0 1007.0 0.0
23/03:30am 25.6 21.8 1.7 21 11.5 ESE 11 17 6 9 1008.0 1007.0 0.0
23/03:00am 26.1 21.5 1.4 20 11.9 SE 15 19 8 10 1008.0 1007.0 0.0
23/02:30am 26.9 22.3 1.3 19 12.4 SE 15 20 8 11 1008.4 1007.4 0.0
23/02:00am 27.4 22.3 1.0 18 12.7 ESE 17 24 9 13 1008.7 1007.7 0.0
23/01:30am 27.9 21.4 0.6 17 13.1 SE 24 30 13 16 1008.7 1007.7 0.0

Other formats

Comma delimited format used in spreadsheet applications
http://www.bom.gov.au/fwo/IDS60801/IDS60801.94659.axf

JavaScript Object Notation format (JSON) in row-major order
http://www.bom.gov.au/fwo/IDS60801/IDS60801.94659.json

Data quality

Most of these data are generated automatically and are frequently updated. Quality checks on data are not normally performed. It is possible for incorrect values to appear. Refer to information at About Latest Weather Observations and please check the disclaimer before using these data.